sensor_id;sensor_type;location;lat;lon;timestamp;temperature;humidity
47604;DHT22;33326;51.116;6.900;2023-03-23T00:01:43;13.40;99.90
47604;DHT22;33326;51.116;6.900;2023-03-23T00:06:46;13.30;99.90
47604;DHT22;33326;51.116;6.900;2023-03-23T00:11:50;13.30;99.90
47604;DHT22;33326;51.116;6.900;2023-03-23T00:16:53;13.40;99.90
47604;DHT22;33326;51.116;6.900;2023-03-23T00:21:56;13.30;99.90
47604;DHT22;33326;51.116;6.900;2023-03-23T00:27:01;13.30;99.90
47604;DHT22;33326;51.116;6.900;2023-03-23T00:32:03;13.30;99.90
47604;DHT22;33326;51.116;6.900;2023-03-23T00:37:10;13.30;99.90
47604;DHT22;33326;51.116;6.900;2023-03-23T00:42:13;13.30;99.90
47604;DHT22;33326;51.116;6.900;2023-03-23T00:47:15;13.30;99.90
47604;DHT22;33326;51.116;6.900;2023-03-23T00:52:19;13.30;99.90
47604;DHT22;33326;51.116;6.900;2023-03-23T00:57:21;13.30;99.90
47604;DHT22;33326;51.116;6.900;2023-03-23T01:02:24;13.30;99.90
47604;DHT22;33326;51.116;6.900;2023-03-23T01:07:28;13.20;99.90
47604;DHT22;33326;51.116;6.900;2023-03-23T01:12:31;13.30;99.90
47604;DHT22;33326;51.116;6.900;2023-03-23T01:17:33;13.20;99.90
47604;DHT22;33326;51.116;6.900;2023-03-23T01:22:37;13.20;99.90
47604;DHT22;33326;51.116;6.900;2023-03-23T01:27:39;13.30;99.90
47604;DHT22;33326;51.116;6.900;2023-03-23T01:32:41;13.20;99.90
47604;DHT22;33326;51.116;6.900;2023-03-23T01:37:45;13.20;99.90
47604;DHT22;33326;51.116;6.900;2023-03-23T01:42:48;13.10;99.90
47604;DHT22;33326;51.116;6.900;2023-03-23T01:47:55;12.90;99.90
47604;DHT22;33326;51.116;6.900;2023-03-23T01:53:00;12.80;99.90
47604;DHT22;33326;51.116;6.900;2023-03-23T01:58:03;12.70;99.90
47604;DHT22;33326;51.116;6.900;2023-03-23T02:03:05;12.60;99.90
47604;DHT22;33326;51.116;6.900;2023-03-23T02:08:11;12.60;99.90
47604;DHT22;33326;51.116;6.900;2023-03-23T02:13:15;12.60;99.90
47604;DHT22;33326;51.116;6.900;2023-03-23T02:18:30;12.60;99.90
47604;DHT22;33326;51.116;6.900;2023-03-23T02:23:50;12.60;99.90
47604;DHT22;33326;51.116;6.900;2023-03-23T02:29:15;12.60;99.90
47604;DHT22;33326;51.116;6.900;2023-03-23T02:34:28;12.50;99.90
47604;DHT22;33326;51.116;6.900;2023-03-23T02:39:34;12.60;99.90
47604;DHT22;33326;51.116;6.900;2023-03-23T02:44:39;12.60;99.90
47604;DHT22;33326;51.116;6.900;2023-03-23T02:49:45;12.50;99.90
47604;DHT22;33326;51.116;6.900;2023-03-23T02:54:49;12.50;99.90
47604;DHT22;33326;51.116;6.900;2023-03-23T02:59:52;12.50;99.90
47604;DHT22;33326;51.116;6.900;2023-03-23T03:05:03;12.40;99.90
47604;DHT22;33326;51.116;6.900;2023-03-23T03:10:12;12.30;99.90
47604;DHT22;33326;51.116;6.900;2023-03-23T03:15:23;12.40;99.90
47604;DHT22;33326;51.116;6.900;2023-03-23T03:20:28;12.30;99.90
47604;DHT22;33326;51.116;6.900;2023-03-23T03:25:32;12.30;99.90
47604;DHT22;33326;51.116;6.900;2023-03-23T03:30:35;12.40;99.90
47604;DHT22;33326;51.116;6.900;2023-03-23T03:35:40;12.40;99.90
47604;DHT22;33326;51.116;6.900;2023-03-23T03:40:44;12.40;99.90
47604;DHT22;33326;51.116;6.900;2023-03-23T03:45:46;12.30;99.90
47604;DHT22;33326;51.116;6.900;2023-03-23T03:50:49;12.40;99.90
47604;DHT22;33326;51.116;6.900;2023-03-23T03:55:53;12.40;99.90
47604;DHT22;33326;51.116;6.900;2023-03-23T04:00:57;12.30;99.90
47604;DHT22;33326;51.116;6.900;2023-03-23T04:06:06;12.40;99.90
47604;DHT22;33326;51.116;6.900;2023-03-23T04:11:09;12.30;99.90
47604;DHT22;33326;51.116;6.900;2023-03-23T04:16:11;12.40;99.90
47604;DHT22;33326;51.116;6.900;2023-03-23T04:21:16;12.40;99.90
47604;DHT22;33326;51.116;6.900;2023-03-23T04:26:20;12.40;99.90
47604;DHT22;33326;51.116;6.900;2023-03-23T04:31:24;12.40;99.90
47604;DHT22;33326;51.116;6.900;2023-03-23T04:36:34;12.40;99.90
47604;DHT22;33326;51.116;6.900;2023-03-23T04:41:44;12.40;99.90
47604;DHT22;33326;51.116;6.900;2023-03-23T04:46:55;12.40;99.90
47604;DHT22;33326;51.116;6.900;2023-03-23T04:52:00;12.40;99.90
47604;DHT22;33326;51.116;6.900;2023-03-23T04:57:17;12.40;99.90
47604;DHT22;33326;51.116;6.900;2023-03-23T05:02:36;12.50;99.90
47604;DHT22;33326;51.116;6.900;2023-03-23T05:07:42;12.50;99.90
47604;DHT22;33326;51.116;6.900;2023-03-23T05:12:44;12.50;99.90
47604;DHT22;33326;51.116;6.900;2023-03-23T05:17:47;12.50;99.90
47604;DHT22;33326;51.116;6.900;2023-03-23T05:22:55;12.50;99.90
47604;DHT22;33326;51.116;6.900;2023-03-23T05:28:03;12.50;99.90
47604;DHT22;33326;51.116;6.900;2023-03-23T05:33:25;12.50;99.90
47604;DHT22;33326;51.116;6.900;2023-03-23T05:38:52;12.50;99.90
47604;DHT22;33326;51.116;6.900;2023-03-23T05:43:59;12.60;99.90
47604;DHT22;33326;51.116;6.900;2023-03-23T05:49:19;12.50;99.90
47604;DHT22;33326;51.116;6.900;2023-03-23T05:54:23;12.50;99.90
47604;DHT22;33326;51.116;6.900;2023-03-23T05:59:27;12.50;99.90
47604;DHT22;33326;51.116;6.900;2023-03-23T06:04:31;12.60;99.90
47604;DHT22;33326;51.116;6.900;2023-03-23T06:09:50;12.70;99.90
47604;DHT22;33326;51.116;6.900;2023-03-23T06:14:58;12.70;99.90
47604;DHT22;33326;51.116;6.900;2023-03-23T06:20:17;12.80;99.90
47604;DHT22;33326;51.116;6.900;2023-03-23T06:25:21;12.80;99.90
47604;DHT22;33326;51.116;6.900;2023-03-23T06:30:23;12.80;99.90
47604;DHT22;33326;51.116;6.900;2023-03-23T06:35:26;12.90;99.90
47604;DHT22;33326;51.116;6.900;2023-03-23T06:40:44;12.90;99.90
47604;DHT22;33326;51.116;6.900;2023-03-23T06:45:48;13.00;99.90
47604;DHT22;33326;51.116;6.900;2023-03-23T06:51:10;13.10;99.90
47604;DHT22;33326;51.116;6.900;2023-03-23T06:56:16;13.10;99.90
47604;DHT22;33326;51.116;6.900;2023-03-23T07:01:19;13.10;99.90
47604;DHT22;33326;51.116;6.900;2023-03-23T07:06:29;13.20;99.90
47604;DHT22;33326;51.116;6.900;2023-03-23T07:11:36;13.20;99.90
47604;DHT22;33326;51.116;6.900;2023-03-23T07:16:49;13.20;99.90
47604;DHT22;33326;51.116;6.900;2023-03-23T07:21:51;13.20;99.90
47604;DHT22;33326;51.116;6.900;2023-03-23T07:26:57;13.20;99.90
47604;DHT22;33326;51.116;6.900;2023-03-23T07:32:00;13.20;99.90
47604;DHT22;33326;51.116;6.900;2023-03-23T07:37:02;13.30;99.90
47604;DHT22;33326;51.116;6.900;2023-03-23T07:42:09;13.30;99.90
47604;DHT22;33326;51.116;6.900;2023-03-23T07:47:20;13.40;99.90
47604;DHT22;33326;51.116;6.900;2023-03-23T07:52:24;13.40;99.90
47604;DHT22;33326;51.116;6.900;2023-03-23T07:57:27;13.40;99.90
47604;DHT22;33326;51.116;6.900;2023-03-23T08:02:31;13.50;99.90
47604;DHT22;33326;51.116;6.900;2023-03-23T08:07:52;13.50;99.90
47604;DHT22;33326;51.116;6.900;2023-03-23T08:13:17;13.50;99.90
47604;DHT22;33326;51.116;6.900;2023-03-23T08:18:41;13.50;99.90
47604;DHT22;33326;51.116;6.900;2023-03-23T08:24:11;13.60;99.90
47604;DHT22;33326;51.116;6.900;2023-03-23T08:29:45;13.70;99.90
47604;DHT22;33326;51.116;6.900;2023-03-23T08:35:15;13.70;99.90
47604;DHT22;33326;51.116;6.900;2023-03-23T08:40:56;13.80;99.90
47604;DHT22;33326;51.116;6.900;2023-03-23T08:46:16;14.00;99.90
47604;DHT22;33326;51.116;6.900;2023-03-23T08:51:38;14.00;99.90
47604;DHT22;33326;51.116;6.900;2023-03-23T08:56:46;14.00;99.90
47604;DHT22;33326;51.116;6.900;2023-03-23T09:02:01;14.10;99.90
47604;DHT22;33326;51.116;6.900;2023-03-23T09:07:11;14.20;99.90
47604;DHT22;33326;51.116;6.900;2023-03-23T09:12:15;14.20;99.90
47604;DHT22;33326;51.116;6.900;2023-03-23T09:17:18;14.30;99.90
47604;DHT22;33326;51.116;6.900;2023-03-23T09:22:20;14.30;99.90
47604;DHT22;33326;51.116;6.900;2023-03-23T09:27:23;14.40;99.90
47604;DHT22;33326;51.116;6.900;2023-03-23T09:32:27;14.40;99.90
47604;DHT22;33326;51.116;6.900;2023-03-23T09:37:29;14.50;99.90
47604;DHT22;33326;51.116;6.900;2023-03-23T09:42:41;14.50;99.90
47604;DHT22;33326;51.116;6.900;2023-03-23T09:48:06;14.50;99.90
47604;DHT22;33326;51.116;6.900;2023-03-23T09:53:13;14.50;99.90
47604;DHT22;33326;51.116;6.900;2023-03-23T09:58:20;14.40;99.90
47604;DHT22;33326;51.116;6.900;2023-03-23T10:03:30;14.40;99.90
47604;DHT22;33326;51.116;6.900;2023-03-23T10:08:34;14.40;99.90
47604;DHT22;33326;51.116;6.900;2023-03-23T10:13:58;14.50;99.90
47604;DHT22;33326;51.116;6.900;2023-03-23T10:19:11;14.50;99.90
47604;DHT22;33326;51.116;6.900;2023-03-23T10:24:16;14.50;99.90
47604;DHT22;33326;51.116;6.900;2023-03-23T10:29:23;14.50;99.90
47604;DHT22;33326;51.116;6.900;2023-03-23T10:34:32;14.40;99.90
47604;DHT22;33326;51.116;6.900;2023-03-23T10:39:45;14.20;99.90
47604;DHT22;33326;51.116;6.900;2023-03-23T10:44:48;14.10;99.90
47604;DHT22;33326;51.116;6.900;2023-03-23T10:49:54;13.60;99.90
47604;DHT22;33326;51.116;6.900;2023-03-23T10:54:58;13.30;99.90
47604;DHT22;33326;51.116;6.900;2023-03-23T11:00:02;12.80;99.90
47604;DHT22;33326;51.116;6.900;2023-03-23T11:05:16;12.40;99.90
47604;DHT22;33326;51.116;6.900;2023-03-23T11:10:22;12.20;99.90
47604;DHT22;33326;51.116;6.900;2023-03-23T11:15:30;12.30;99.90
47604;DHT22;33326;51.116;6.900;2023-03-23T11:20:37;12.40;99.90
47604;DHT22;33326;51.116;6.900;2023-03-23T11:25:56;12.50;99.90
47604;DHT22;33326;51.116;6.900;2023-03-23T11:31:00;12.70;99.90
47604;DHT22;33326;51.116;6.900;2023-03-23T11:36:06;12.60;99.90
47604;DHT22;33326;51.116;6.900;2023-03-23T11:41:10;12.60;99.90
47604;DHT22;33326;51.116;6.900;2023-03-23T11:46:20;12.50;99.90
47604;DHT22;33326;51.116;6.900;2023-03-23T11:51:30;12.40;99.90
47604;DHT22;33326;51.116;6.900;2023-03-23T11:56:36;12.50;99.90
47604;DHT22;33326;51.116;6.900;2023-03-23T12:01:56;12.80;99.90
47604;DHT22;33326;51.116;6.900;2023-03-23T12:07:13;13.00;99.90
47604;DHT22;33326;51.116;6.900;2023-03-23T12:12:21;13.30;99.90
47604;DHT22;33326;51.116;6.900;2023-03-23T12:17:32;14.10;99.90
47604;DHT22;33326;51.116;6.900;2023-03-23T12:22:44;14.70;99.90
47604;DHT22;33326;51.116;6.900;2023-03-23T12:27:52;14.90;99.90
47604;DHT22;33326;51.116;6.900;2023-03-23T12:33:13;15.70;99.90
47604;DHT22;33326;51.116;6.900;2023-03-23T12:38:34;15.60;99.90
47604;DHT22;33326;51.116;6.900;2023-03-23T12:43:48;15.70;99.90
47604;DHT22;33326;51.116;6.900;2023-03-23T12:48:54;16.30;99.90
47604;DHT22;33326;51.116;6.900;2023-03-23T12:54:07;17.10;99.90
47604;DHT22;33326;51.116;6.900;2023-03-23T12:59:17;17.20;99.90
47604;DHT22;33326;51.116;6.900;2023-03-23T13:04:23;16.30;99.90
47604;DHT22;33326;51.116;6.900;2023-03-23T13:09:32;15.70;99.90
47604;DHT22;33326;51.116;6.900;2023-03-23T13:14:42;14.90;99.90
47604;DHT22;33326;51.116;6.900;2023-03-23T13:19:59;14.70;99.90
47604;DHT22;33326;51.116;6.900;2023-03-23T13:25:14;14.80;99.90
47604;DHT22;33326;51.116;6.900;2023-03-23T13:30:18;14.90;99.90
47604;DHT22;33326;51.116;6.900;2023-03-23T13:35:23;14.90;99.90
47604;DHT22;33326;51.116;6.900;2023-03-23T13:40:29;14.60;99.90
47604;DHT22;33326;51.116;6.900;2023-03-23T13:45:42;14.80;99.90
47604;DHT22;33326;51.116;6.900;2023-03-23T13:50:50;14.60;99.90
47604;DHT22;33326;51.116;6.900;2023-03-23T13:56:06;14.40;99.90
47604;DHT22;33326;51.116;6.900;2023-03-23T14:01:14;14.30;99.90
47604;DHT22;33326;51.116;6.900;2023-03-23T14:06:20;14.00;99.90
47604;DHT22;33326;51.116;6.900;2023-03-23T14:11:46;13.70;99.90
47604;DHT22;33326;51.116;6.900;2023-03-23T14:16:51;13.50;99.90
47604;DHT22;33326;51.116;6.900;2023-03-23T14:21:55;13.60;99.90
47604;DHT22;33326;51.116;6.900;2023-03-23T14:27:09;13.90;99.90
47604;DHT22;33326;51.116;6.900;2023-03-23T14:32:14;14.20;99.90
47604;DHT22;33326;51.116;6.900;2023-03-23T14:37:17;14.80;99.90
47604;DHT22;33326;51.116;6.900;2023-03-23T14:42:26;14.70;99.90
47604;DHT22;33326;51.116;6.900;2023-03-23T14:47:30;14.60;99.90
47604;DHT22;33326;51.116;6.900;2023-03-23T14:52:35;14.40;99.90
47604;DHT22;33326;51.116;6.900;2023-03-23T14:57:40;14.20;99.90
47604;DHT22;33326;51.116;6.900;2023-03-23T15:02:46;14.10;99.90
47604;DHT22;33326;51.116;6.900;2023-03-23T15:07:51;14.00;99.90
47604;DHT22;33326;51.116;6.900;2023-03-23T15:12:56;13.90;99.90
47604;DHT22;33326;51.116;6.900;2023-03-23T15:18:00;13.70;99.90
47604;DHT22;33326;51.116;6.900;2023-03-23T15:23:06;14.20;99.90
47604;DHT22;33326;51.116;6.900;2023-03-23T15:28:16;17.60;99.90
47604;DHT22;33326;51.116;6.900;2023-03-23T15:33:19;20.10;99.90
47604;DHT22;33326;51.116;6.900;2023-03-23T15:38:30;22.10;99.90
47604;DHT22;33326;51.116;6.900;2023-03-23T15:43:35;24.00;99.90
47604;DHT22;33326;51.116;6.900;2023-03-23T15:48:46;23.40;99.90
47604;DHT22;33326;51.116;6.900;2023-03-23T15:53:50;22.10;99.90
47604;DHT22;33326;51.116;6.900;2023-03-23T15:58:54;20.50;99.90
47604;DHT22;33326;51.116;6.900;2023-03-23T16:03:59;19.20;99.90
47604;DHT22;33326;51.116;6.900;2023-03-23T16:09:03;18.90;99.90
47604;DHT22;33326;51.116;6.900;2023-03-23T16:14:07;19.40;99.90
47604;DHT22;33326;51.116;6.900;2023-03-23T16:19:10;19.20;99.90
47604;DHT22;33326;51.116;6.900;2023-03-23T16:24:13;18.40;99.90
47604;DHT22;33326;51.116;6.900;2023-03-23T16:29:17;17.40;99.90
47604;DHT22;33326;51.116;6.900;2023-03-23T16:34:18;16.50;99.90
47604;DHT22;33326;51.116;6.900;2023-03-23T16:39:21;16.50;99.90
47604;DHT22;33326;51.116;6.900;2023-03-23T16:44:24;16.50;99.90
47604;DHT22;33326;51.116;6.900;2023-03-23T16:49:26;16.30;99.90
47604;DHT22;33326;51.116;6.900;2023-03-23T16:54:28;16.20;99.90
47604;DHT22;33326;51.116;6.900;2023-03-23T16:59:31;15.90;99.90
47604;DHT22;33326;51.116;6.900;2023-03-23T17:04:33;15.70;99.90
47604;DHT22;33326;51.116;6.900;2023-03-23T17:09:35;15.60;99.90
47604;DHT22;33326;51.116;6.900;2023-03-23T17:14:39;15.50;99.90
47604;DHT22;33326;51.116;6.900;2023-03-23T17:19:40;15.40;99.90
47604;DHT22;33326;51.116;6.900;2023-03-23T17:24:42;15.30;99.90
47604;DHT22;33326;51.116;6.900;2023-03-23T17:29:48;15.30;99.90
47604;DHT22;33326;51.116;6.900;2023-03-23T17:34:50;15.20;99.90
47604;DHT22;33326;51.116;6.900;2023-03-23T17:39:52;15.20;99.90
47604;DHT22;33326;51.116;6.900;2023-03-23T17:44:56;14.90;99.90
47604;DHT22;33326;51.116;6.900;2023-03-23T17:49:58;14.80;99.90
47604;DHT22;33326;51.116;6.900;2023-03-23T17:55:00;14.70;99.90
47604;DHT22;33326;51.116;6.900;2023-03-23T18:00:04;14.60;99.90
47604;DHT22;33326;51.116;6.900;2023-03-23T18:05:08;14.50;99.90
47604;DHT22;33326;51.116;6.900;2023-03-23T18:10:10;14.40;99.90
47604;DHT22;33326;51.116;6.900;2023-03-23T18:15:13;14.30;99.90
47604;DHT22;33326;51.116;6.900;2023-03-23T18:20:15;14.30;99.90
47604;DHT22;33326;51.116;6.900;2023-03-23T18:25:17;14.30;99.90
47604;DHT22;33326;51.116;6.900;2023-03-23T18:30:21;14.20;99.90
47604;DHT22;33326;51.116;6.900;2023-03-23T18:35:26;14.10;99.90
47604;DHT22;33326;51.116;6.900;2023-03-23T18:40:28;14.10;99.90
47604;DHT22;33326;51.116;6.900;2023-03-23T18:45:31;14.10;99.90
47604;DHT22;33326;51.116;6.900;2023-03-23T18:50:33;14.00;99.90
47604;DHT22;33326;51.116;6.900;2023-03-23T18:55:36;14.00;99.90
47604;DHT22;33326;51.116;6.900;2023-03-23T19:00:40;14.00;99.90
47604;DHT22;33326;51.116;6.900;2023-03-23T19:05:42;14.10;99.90
47604;DHT22;33326;51.116;6.900;2023-03-23T19:10:44;14.10;99.90
47604;DHT22;33326;51.116;6.900;2023-03-23T19:15:48;14.10;99.90
47604;DHT22;33326;51.116;6.900;2023-03-23T19:20:50;14.10;99.90
47604;DHT22;33326;51.116;6.900;2023-03-23T19:25:53;14.10;99.90
47604;DHT22;33326;51.116;6.900;2023-03-23T19:30:57;14.20;99.90
47604;DHT22;33326;51.116;6.900;2023-03-23T19:35:59;14.20;99.90
47604;DHT22;33326;51.116;6.900;2023-03-23T19:41:01;14.20;99.90
47604;DHT22;33326;51.116;6.900;2023-03-23T19:46:08;14.20;99.90
47604;DHT22;33326;51.116;6.900;2023-03-23T19:51:11;14.30;99.90
47604;DHT22;33326;51.116;6.900;2023-03-23T19:56:15;14.30;99.90
47604;DHT22;33326;51.116;6.900;2023-03-23T20:01:18;14.30;99.90
47604;DHT22;33326;51.116;6.900;2023-03-23T20:06:20;14.30;99.90
47604;DHT22;33326;51.116;6.900;2023-03-23T20:11:22;14.30;99.90
47604;DHT22;33326;51.116;6.900;2023-03-23T20:16:26;14.20;99.90
47604;DHT22;33326;51.116;6.900;2023-03-23T20:21:28;14.20;99.90
47604;DHT22;33326;51.116;6.900;2023-03-23T20:26:32;14.30;99.90
47604;DHT22;33326;51.116;6.900;2023-03-23T20:31:37;14.30;99.90
47604;DHT22;33326;51.116;6.900;2023-03-23T20:36:40;14.30;99.90
47604;DHT22;33326;51.116;6.900;2023-03-23T20:41:44;14.30;99.90
47604;DHT22;33326;51.116;6.900;2023-03-23T20:46:50;14.30;99.90
47604;DHT22;33326;51.116;6.900;2023-03-23T20:51:52;14.30;99.90
47604;DHT22;33326;51.116;6.900;2023-03-23T20:56:54;14.20;99.90
47604;DHT22;33326;51.116;6.900;2023-03-23T21:01:59;14.20;99.90
47604;DHT22;33326;51.116;6.900;2023-03-23T21:07:01;14.30;99.90
47604;DHT22;33326;51.116;6.900;2023-03-23T21:12:03;14.30;99.90
47604;DHT22;33326;51.116;6.900;2023-03-23T21:17:07;14.30;99.90
47604;DHT22;33326;51.116;6.900;2023-03-23T21:22:09;14.30;99.90
47604;DHT22;33326;51.116;6.900;2023-03-23T21:27:14;14.30;99.90
47604;DHT22;33326;51.116;6.900;2023-03-23T21:32:17;14.20;99.90
47604;DHT22;33326;51.116;6.900;2023-03-23T21:37:19;14.10;99.90
47604;DHT22;33326;51.116;6.900;2023-03-23T21:42:21;14.10;99.90
47604;DHT22;33326;51.116;6.900;2023-03-23T21:47:30;14.10;99.90
47604;DHT22;33326;51.116;6.900;2023-03-23T21:52:32;14.00;99.90
47604;DHT22;33326;51.116;6.900;2023-03-23T21:57:35;14.00;99.90
47604;DHT22;33326;51.116;6.900;2023-03-23T22:02:39;14.00;99.90
47604;DHT22;33326;51.116;6.900;2023-03-23T22:07:41;14.00;99.90
47604;DHT22;33326;51.116;6.900;2023-03-23T22:12:43;14.00;99.90
47604;DHT22;33326;51.116;6.900;2023-03-23T22:17:47;14.00;99.90
47604;DHT22;33326;51.116;6.900;2023-03-23T22:22:48;13.90;99.90
47604;DHT22;33326;51.116;6.900;2023-03-23T22:27:51;13.80;99.90
47604;DHT22;33326;51.116;6.900;2023-03-23T22:32:56;13.70;99.90
47604;DHT22;33326;51.116;6.900;2023-03-23T22:37:58;13.60;99.90
47604;DHT22;33326;51.116;6.900;2023-03-23T22:43:02;13.50;99.90
47604;DHT22;33326;51.116;6.900;2023-03-23T22:48:05;13.30;99.90
47604;DHT22;33326;51.116;6.900;2023-03-23T22:53:07;13.30;99.90
47604;DHT22;33326;51.116;6.900;2023-03-23T22:58:09;13.20;99.90
47604;DHT22;33326;51.116;6.900;2023-03-23T23:03:13;13.20;99.90
47604;DHT22;33326;51.116;6.900;2023-03-23T23:08:15;13.10;99.90
47604;DHT22;33326;51.116;6.900;2023-03-23T23:13:18;13.00;99.90
47604;DHT22;33326;51.116;6.900;2023-03-23T23:18:23;13.10;99.90
47604;DHT22;33326;51.116;6.900;2023-03-23T23:23:26;13.10;99.90
47604;DHT22;33326;51.116;6.900;2023-03-23T23:28:28;13.20;99.90
47604;DHT22;33326;51.116;6.900;2023-03-23T23:33:32;13.20;99.90
47604;DHT22;33326;51.116;6.900;2023-03-23T23:38:34;13.20;99.90
47604;DHT22;33326;51.116;6.900;2023-03-23T23:43:36;13.20;99.90
47604;DHT22;33326;51.116;6.900;2023-03-23T23:48:39;13.30;99.90
47604;DHT22;33326;51.116;6.900;2023-03-23T23:53:42;13.20;99.90
47604;DHT22;33326;51.116;6.900;2023-03-23T23:58:45;13.10;99.90
